Time;durP1;ratioP1;P1;durP2;ratioP2;P2;SDS_P1;SDS_P2;PMS_P1;PMS_P2;Temp;Humidity;BMP_temperature;BMP_pressure;BME280_temperature;BME280_humidity;BME280_pressure;Samples;Min_cycle;Max_cycle;Signal;HPM_P1;HPM_P2
2023/01/07 00:01:23;;;;;;;54.92;22.85;;;;;;;;;;5052225;28;20068;-77
2023/01/07 00:03:49;;;;;;;50.15;23.08;;;;;;;;;;5035589;28;20494;-77
2023/01/07 00:06:17;;;;;;;50.28;22.42;;;;;;;;;;5052213;28;20041;-77
2023/01/07 00:08:44;;;;;;;51.47;22.40;;;;;;;;;;5051393;28;20040;-77
2023/01/07 00:11:18;;;;;;;58.08;24.27;;;;;;;;;;5018905;28;20134;-77
2023/01/07 00:13:45;;;;;;;53.58;22.48;;;;;;;;;;5051594;28;20056;-77
2023/01/07 00:16:13;;;;;;;52.42;23.27;;;;;;;;;;5052193;28;20041;-76
2023/01/07 00:18:39;;;;;;;53.60;22.58;;;;;;;;;;5051540;28;20040;-76
2023/01/07 00:21:07;;;;;;;52.88;23.00;;;;;;;;;;5085253;28;20036;-77
2023/01/07 00:23:34;;;;;;;54.78;24.00;;;;;;;;;;5052842;28;20103;-76
2023/01/07 00:26:01;;;;;;;58.90;23.90;;;;;;;;;;5051688;28;20066;-77
2023/01/07 00:28:27;;;;;;;56.10;23.65;;;;;;;;;;5051041;28;20041;-77
2023/01/07 00:30:58;;;;;;;50.55;22.70;;;;;;;;;;5051516;28;20056;-77
2023/01/07 00:33:27;;;;;;;48.65;23.05;;;;;;;;;;5051293;28;20041;-77
2023/01/07 00:36:04;;;;;;;54.28;22.95;;;;;;;;;;5051438;28;20056;-77
2023/01/07 00:38:30;;;;;;;54.92;23.67;;;;;;;;;;5052153;28;20033;-77
2023/01/07 00:40:56;;;;;;;54.80;24.23;;;;;;;;;;5052103;28;20474;-77
2023/01/07 00:43:22;;;;;;;50.20;22.92;;;;;;;;;;5051533;28;20432;-77
2023/01/07 00:45:48;;;;;;;48.15;22.88;;;;;;;;;;5050781;28;20060;-77
2023/01/07 00:48:16;;;;;;;50.75;24.20;;;;;;;;;;5051188;28;20052;-77
2023/01/07 00:50:42;;;;;;;54.45;23.92;;;;;;;;;;5050728;28;20047;-77
2023/01/07 00:53:09;;;;;;;48.28;23.05;;;;;;;;;;5034634;28;20060;-77
2023/01/07 00:55:35;;;;;;;51.38;23.70;;;;;;;;;;5051666;28;20052;-77
2023/01/07 00:58:01;;;;;;;54.20;23.88;;;;;;;;;;5051346;28;20060;-77
2023/01/07 01:00:27;;;;;;;49.17;23.60;;;;;;;;;;5051097;28;20281;-77
2023/01/07 01:02:53;;;;;;;44.28;23.10;;;;;;;;;;5034515;28;20402;-77
2023/01/07 01:05:19;;;;;;;45.88;22.58;;;;;;;;;;5034496;28;20094;-77
2023/01/07 01:07:46;;;;;;;47.35;23.90;;;;;;;;;;5033889;28;20041;-77
2023/01/07 01:10:13;;;;;;;46.47;23.13;;;;;;;;;;5050859;28;20098;-76
2023/01/07 01:12:40;;;;;;;44.75;22.85;;;;;;;;;;5051790;28;20033;-78
2023/01/07 01:15:08;;;;;;;44.00;22.67;;;;;;;;;;5051117;28;20402;-76
2023/01/07 01:17:34;;;;;;;43.13;22.10;;;;;;;;;;5050373;28;20056;-77
2023/01/07 01:20:00;;;;;;;41.97;22.27;;;;;;;;;;5050858;28;20112;-77
2023/01/07 01:22:26;;;;;;;40.30;22.13;;;;;;;;;;5050751;28;20109;-76
2023/01/07 01:24:52;;;;;;;37.10;21.20;;;;;;;;;;5033779;28;20041;-77
2023/01/07 01:27:19;;;;;;;39.05;22.30;;;;;;;;;;5054346;28;20071;-78
2023/01/07 01:29:45;;;;;;;41.72;22.58;;;;;;;;;;5054424;28;20489;-77
2023/01/07 01:32:11;;;;;;;41.53;21.75;;;;;;;;;;5054842;28;20052;-77
2023/01/07 01:34:37;;;;;;;38.22;21.98;;;;;;;;;;5054195;28;20048;-77
2023/01/07 01:37:03;;;;;;;39.70;21.88;;;;;;;;;;5056031;28;20379;-77
2023/01/07 01:39:29;;;;;;;38.78;20.88;;;;;;;;;;5056970;28;20041;-77
2023/01/07 01:41:55;;;;;;;40.22;21.75;;;;;;;;;;5054381;28;20045;-77
2023/01/07 01:44:33;;;;;;;41.15;22.17;;;;;;;;;;5038266;28;20486;-77
2023/01/07 01:47:00;;;;;;;38.80;21.80;;;;;;;;;;5054736;28;20068;-77
2023/01/07 01:49:29;;;;;;;36.65;20.92;;;;;;;;;;5054741;28;20481;-77
2023/01/07 01:52:01;;;;;;;38.80;21.77;;;;;;;;;;5054153;28;20102;-77
2023/01/07 01:54:27;;;;;;;40.55;21.38;;;;;;;;;;5054555;28;20045;-76
2023/01/07 01:56:55;;;;;;;38.03;22.55;;;;;;;;;;5053814;28;20077;-77
2023/01/07 01:59:24;;;;;;;36.17;21.50;;;;;;;;;;5040446;28;20099;-77
2023/01/07 02:01:50;;;;;;;38.53;22.10;;;;;;;;;;5054224;28;20037;-77
2023/01/07 02:04:17;;;;;;;36.13;21.58;;;;;;;;;;5054220;28;20041;-77
2023/01/07 02:06:49;;;;;;;40.00;22.45;;;;;;;;;;5054145;28;20512;-78
2023/01/07 02:09:15;;;;;;;41.28;23.05;;;;;;;;;;5054381;28;20051;-76
2023/01/07 02:11:41;;;;;;;40.00;22.90;;;;;;;;;;5053699;28;20068;-77
2023/01/07 02:14:24;;;;;;;40.55;22.90;;;;;;;;;;5054240;28;20504;-77
2023/01/07 02:16:56;;;;;;;40.35;23.15;;;;;;;;;;5053838;28;20048;-77
2023/01/07 02:19:22;;;;;;;38.90;23.17;;;;;;;;;;5037315;28;20501;-77
2023/01/07 02:21:52;;;;;;;37.47;23.58;;;;;;;;;;5053116;28;20112;-77
2023/01/07 02:24:36;;;;;;;39.20;23.50;;;;;;;;;;5053591;28;20045;-78
2023/01/07 02:27:21;;;;;;;38.97;23.95;;;;;;;;;;5053407;28;20045;-77
2023/01/07 02:30:06;;;;;;;37.35;22.85;;;;;;;;;;5053162;28;20095;-77
2023/01/07 02:32:35;;;;;;;38.05;21.25;;;;;;;;;;5040102;28;20045;-77
2023/01/07 02:35:04;;;;;;;35.63;22.73;;;;;;;;;;5053505;28;20394;-77
2023/01/07 02:37:30;;;;;;;35.80;22.92;;;;;;;;;;5052204;28;20040;-77
2023/01/07 02:39:56;;;;;;;37.13;22.70;;;;;;;;;;5053407;28;20447;-77
2023/01/07 02:42:25;;;;;;;31.02;20.13;;;;;;;;;;5053732;28;20461;-76
2023/01/07 02:45:03;;;;;;;34.60;21.13;;;;;;;;;;5053012;28;20037;-77
2023/01/07 02:47:59;;;;;;;34.28;21.05;;;;;;;;;;5059561;28;20401;-77
2023/01/07 02:50:25;;;;;;;34.22;21.40;;;;;;;;;;5043903;28;20060;-77
2023/01/07 02:52:51;;;;;;;32.85;21.02;;;;;;;;;;5072993;28;20036;-77
2023/01/07 02:55:20;;;;;;;33.65;20.30;;;;;;;;;;5062097;28;20045;-77
2023/01/07 02:57:59;;;;;;;31.02;20.40;;;;;;;;;;5035984;28;20075;-77
2023/01/07 03:00:53;;;;;;;29.90;19.65;;;;;;;;;;5053362;28;20047;-77
2023/01/07 03:03:41;;;;;;;29.13;18.83;;;;;;;;;;5041902;28;20033;-77
2023/01/07 03:06:07;;;;;;;30.23;18.48;;;;;;;;;;5051378;28;20052;-77
2023/01/07 03:08:44;;;;;;;27.38;17.52;;;;;;;;;;5052868;28;20181;-77
2023/01/07 03:11:10;;;;;;;25.65;18.33;;;;;;;;;;5052816;28;20076;-77
2023/01/07 03:13:39;;;;;;;28.98;18.25;;;;;;;;;;5052791;28;20111;-77
2023/01/07 03:16:19;;;;;;;28.00;18.20;;;;;;;;;;5052176;28;20037;-77
2023/01/07 03:18:48;;;;;;;27.30;17.75;;;;;;;;;;5037273;28;20112;-77
2023/01/07 03:21:16;;;;;;;28.13;18.10;;;;;;;;;;5047462;28;20037;-77
2023/01/07 03:23:45;;;;;;;29.70;18.77;;;;;;;;;;5053980;28;20052;-77
2023/01/07 03:26:12;;;;;;;29.10;17.77;;;;;;;;;;5052622;28;20068;-77
2023/01/07 03:28:40;;;;;;;29.40;17.05;;;;;;;;;;5053477;28;20037;-77
2023/01/07 03:31:07;;;;;;;28.17;18.65;;;;;;;;;;5053339;28;20133;-77
2023/01/07 03:33:36;;;;;;;31.63;19.45;;;;;;;;;;5069957;28;20040;-77
2023/01/07 03:36:03;;;;;;;29.45;18.20;;;;;;;;;;5065536;28;20045;-77
2023/01/07 03:38:30;;;;;;;29.20;18.27;;;;;;;;;;5055754;28;20036;-77
2023/01/07 03:40:56;;;;;;;30.48;18.75;;;;;;;;;;5055376;28;20119;-77
2023/01/07 03:43:23;;;;;;;34.05;19.27;;;;;;;;;;5068357;28;20037;-77
2023/01/07 03:45:49;;;;;;;30.67;17.98;;;;;;;;;;5061737;28;20044;-77
2023/01/07 03:48:16;;;;;;;27.67;18.52;;;;;;;;;;5071623;28;20040;-76
2023/01/07 03:50:42;;;;;;;28.40;17.40;;;;;;;;;;5055535;28;20040;-77
2023/01/07 03:53:08;;;;;;;31.70;19.35;;;;;;;;;;5072995;28;20614;-77
2023/01/07 03:55:34;;;;;;;31.85;18.65;;;;;;;;;;5072307;28;20060;-77
2023/01/07 03:58:00;;;;;;;31.10;18.67;;;;;;;;;;5054895;28;20048;-77
2023/01/07 04:00:26;;;;;;;27.73;17.55;;;;;;;;;;5057740;28;20056;-77
2023/01/07 04:02:52;;;;;;;29.83;18.10;;;;;;;;;;5071463;28;20048;-77
2023/01/07 04:05:18;;;;;;;29.45;17.23;;;;;;;;;;5038629;28;20044;-77
2023/01/07 04:07:45;;;;;;;27.17;16.73;;;;;;;;;;5071901;28;20162;-77
2023/01/07 04:10:11;;;;;;;29.42;17.10;;;;;;;;;;5071330;28;20052;-77
2023/01/07 04:12:37;;;;;;;27.20;16.98;;;;;;;;;;5071927;28;20481;-77
2023/01/07 04:15:03;;;;;;;27.05;16.73;;;;;;;;;;5071390;28;20040;-77
2023/01/07 04:17:29;;;;;;;27.08;17.50;;;;;;;;;;5071504;28;20044;-77
2023/01/07 04:19:55;;;;;;;28.95;17.13;;;;;;;;;;5071464;28;20124;-77
2023/01/07 04:22:22;;;;;;;24.98;16.02;;;;;;;;;;5068932;28;20044;-77
2023/01/07 04:24:48;;;;;;;30.13;17.17;;;;;;;;;;5060630;28;20545;-76
2023/01/07 04:27:14;;;;;;;25.90;16.25;;;;;;;;;;5056273;28;20044;-77
2023/01/07 04:29:40;;;;;;;25.25;16.27;;;;;;;;;;5051548;28;20041;-77
2023/01/07 04:32:06;;;;;;;22.23;15.63;;;;;;;;;;5051018;28;20033;-77
2023/01/07 04:34:32;;;;;;;25.45;16.40;;;;;;;;;;5053085;28;20123;-77
2023/01/07 04:36:58;;;;;;;23.63;14.90;;;;;;;;;;5051346;28;20048;-77
2023/01/07 04:39:24;;;;;;;23.65;15.35;;;;;;;;;;5035458;28;20398;-77
2023/01/07 04:41:50;;;;;;;23.00;14.95;;;;;;;;;;5051495;28;20045;-77
2023/01/07 04:44:16;;;;;;;25.75;14.77;;;;;;;;;;5050989;28;20048;-77
2023/01/07 04:46:43;;;;;;;23.35;14.65;;;;;;;;;;5051731;28;20085;-77
2023/01/07 04:49:09;;;;;;;21.42;14.38;;;;;;;;;;5050941;28;20040;-77
2023/01/07 04:51:35;;;;;;;23.08;14.57;;;;;;;;;;5051216;28;20176;-77
2023/01/07 04:54:01;;;;;;;20.98;13.65;;;;;;;;;;5050975;28;20120;-77
2023/01/07 04:56:27;;;;;;;21.60;13.57;;;;;;;;;;5050910;28;20053;-77
2023/01/07 04:58:53;;;;;;;22.33;14.00;;;;;;;;;;5052458;28;20044;-77
2023/01/07 05:01:19;;;;;;;20.02;13.45;;;;;;;;;;5047252;28;20087;-77
2023/01/07 05:03:45;;;;;;;21.60;13.30;;;;;;;;;;5045025;28;20041;-77
2023/01/07 05:06:11;;;;;;;20.88;13.60;;;;;;;;;;5050113;28;20059;-77
2023/01/07 05:08:37;;;;;;;22.27;13.55;;;;;;;;;;5034806;28;20098;-77
2023/01/07 05:11:04;;;;;;;20.67;12.32;;;;;;;;;;5050598;28;20041;-77
2023/01/07 05:13:30;;;;;;;20.95;13.23;;;;;;;;;;5050834;28;20049;-77
2023/01/07 05:15:56;;;;;;;19.23;12.18;;;;;;;;;;5051025;28;20413;-77
2023/01/07 05:18:22;;;;;;;18.80;12.60;;;;;;;;;;5050761;28;20033;-77
2023/01/07 05:20:48;;;;;;;19.42;12.25;;;;;;;;;;5051080;28;20044;-77
2023/01/07 05:23:14;;;;;;;18.27;12.23;;;;;;;;;;5051987;28;20051;-76
2023/01/07 05:25:40;;;;;;;18.45;12.07;;;;;;;;;;5034555;28;20512;-77
2023/01/07 05:28:07;;;;;;;18.30;12.48;;;;;;;;;;5050712;28;20079;-77
2023/01/07 05:30:33;;;;;;;17.80;12.00;;;;;;;;;;5064709;28;20113;-77
2023/01/07 05:32:59;;;;;;;17.08;12.05;;;;;;;;;;5034405;28;20045;-76
2023/01/07 05:35:25;;;;;;;23.50;12.38;;;;;;;;;;5052118;28;20044;-76
2023/01/07 05:37:51;;;;;;;20.08;12.18;;;;;;;;;;5050691;28;20037;-76
2023/01/07 05:40:17;;;;;;;19.02;11.90;;;;;;;;;;5051667;28;20112;-77
2023/01/07 05:42:43;;;;;;;21.85;12.18;;;;;;;;;;5050487;28;20167;-77
2023/01/07 05:45:09;;;;;;;19.90;11.75;;;;;;;;;;5050049;28;20048;-77
2023/01/07 05:47:35;;;;;;;17.15;11.10;;;;;;;;;;5050633;28;20040;-77
2023/01/07 05:50:01;;;;;;;18.38;11.30;;;;;;;;;;5050872;28;20041;-77
2023/01/07 05:52:27;;;;;;;18.60;11.45;;;;;;;;;;5050815;28;20565;-77
2023/01/07 05:54:53;;;;;;;14.52;10.00;;;;;;;;;;5051007;28;20071;-77
2023/01/07 05:57:19;;;;;;;17.83;11.65;;;;;;;;;;5051187;28;20049;-77
2023/01/07 05:59:45;;;;;;;20.17;11.55;;;;;;;;;;5050805;28;20045;-77
2023/01/07 06:02:11;;;;;;;18.73;11.35;;;;;;;;;;5049917;28;20124;-76
2023/01/07 06:04:38;;;;;;;15.73;10.38;;;;;;;;;;5033987;28;20056;-77
2023/01/07 06:07:04;;;;;;;16.92;11.07;;;;;;;;;;5050090;28;20123;-76
2023/01/07 06:09:30;;;;;;;17.75;11.00;;;;;;;;;;5050398;28;20037;-77
2023/01/07 06:11:56;;;;;;;20.98;11.00;;;;;;;;;;5051518;28;20041;-76
2023/01/07 06:14:22;;;;;;;17.13;11.00;;;;;;;;;;5054157;28;20110;-77
2023/01/07 06:16:48;;;;;;;17.00;11.00;;;;;;;;;;5054098;28;20045;-77
2023/01/07 06:19:14;;;;;;;18.20;11.13;;;;;;;;;;5053539;28;20098;-77
2023/01/07 06:21:40;;;;;;;16.20;10.45;;;;;;;;;;5054291;28;20490;-77
2023/01/07 06:24:07;;;;;;;17.38;10.20;;;;;;;;;;5053737;28;20407;-77
2023/01/07 06:26:33;;;;;;;15.18;10.00;;;;;;;;;;5054062;28;20037;-77
2023/01/07 06:28:59;;;;;;;15.80;10.32;;;;;;;;;;5053984;28;20048;-77
2023/01/07 06:31:25;;;;;;;15.50;10.13;;;;;;;;;;5053348;28;20041;-77
2023/01/07 06:33:51;;;;;;;15.13;9.88;;;;;;;;;;5053723;28;20037;-77
2023/01/07 06:36:17;;;;;;;15.75;9.68;;;;;;;;;;5053328;28;20051;-77
2023/01/07 06:38:43;;;;;;;17.52;10.35;;;;;;;;;;5055114;28;20063;-77
2023/01/07 06:41:09;;;;;;;15.57;10.10;;;;;;;;;;5053849;28;20044;-77
2023/01/07 06:43:35;;;;;;;17.50;10.20;;;;;;;;;;5036949;28;20041;-77
2023/01/07 06:46:01;;;;;;;16.48;9.05;;;;;;;;;;5053597;28;20436;-77
2023/01/07 06:48:28;;;;;;;17.73;10.38;;;;;;;;;;5054550;28;20048;-77
2023/01/07 06:50:54;;;;;;;15.40;9.32;;;;;;;;;;5053520;28;20068;-76
2023/01/07 06:53:20;;;;;;;14.15;9.23;;;;;;;;;;5053151;28;20037;-77
2023/01/07 06:55:50;;;;;;;14.02;9.10;;;;;;;;;;5053297;28;20048;-77
2023/01/07 06:58:16;;;;;;;12.55;8.27;;;;;;;;;;5036329;28;20464;-77
2023/01/07 07:00:42;;;;;;;14.65;9.10;;;;;;;;;;5053400;28;20490;-77
2023/01/07 07:03:08;;;;;;;12.70;9.20;;;;;;;;;;5053414;28;20402;-77
2023/01/07 07:05:34;;;;;;;12.05;7.97;;;;;;;;;;5052930;28;20047;-77
2023/01/07 07:08:01;;;;;;;13.57;9.10;;;;;;;;;;5053172;28;20076;-77
2023/01/07 07:10:27;;;;;;;11.90;8.73;;;;;;;;;;5054191;28;20041;-77
2023/01/07 07:12:53;;;;;;;15.02;8.75;;;;;;;;;;5036351;28;20033;-77
2023/01/07 07:15:19;;;;;;;12.32;8.50;;;;;;;;;;5052969;28;20393;-77
2023/01/07 07:17:45;;;;;;;12.85;8.35;;;;;;;;;;5052825;28;20063;-77
2023/01/07 07:20:11;;;;;;;11.48;8.05;;;;;;;;;;5036361;28;20084;-77
2023/01/07 07:22:37;;;;;;;13.32;8.48;;;;;;;;;;5053117;28;20049;-77
2023/01/07 07:25:04;;;;;;;13.10;8.43;;;;;;;;;;5052448;28;20037;-76
2023/01/07 07:27:30;;;;;;;12.57;8.23;;;;;;;;;;5052948;28;20044;-77
2023/01/07 07:29:56;;;;;;;12.95;8.15;;;;;;;;;;5048787;28;20083;-77
2023/01/07 07:32:27;;;;;;;16.33;8.60;;;;;;;;;;5052475;28;20037;-77
2023/01/07 07:34:53;;;;;;;18.63;7.88;;;;;;;;;;5052987;28;20052;-77
2023/01/07 07:37:19;;;;;;;13.15;8.90;;;;;;;;;;5053459;28;20078;-77
2023/01/07 07:39:45;;;;;;;15.13;8.00;;;;;;;;;;5052563;28;20041;-77
2023/01/07 07:42:11;;;;;;;11.20;7.25;;;;;;;;;;5052554;28;20037;-77
2023/01/07 07:44:37;;;;;;;11.32;7.60;;;;;;;;;;5052290;28;20099;-77
2023/01/07 07:47:03;;;;;;;12.35;7.90;;;;;;;;;;5085884;28;20111;-77
2023/01/07 07:49:29;;;;;;;13.15;8.40;;;;;;;;;;5051866;28;20036;-77
2023/01/07 07:51:55;;;;;;;13.55;7.90;;;;;;;;;;5036055;28;20502;-76
2023/01/07 07:54:21;;;;;;;10.57;7.25;;;;;;;;;;5052124;28;20520;-77
2023/01/07 07:56:47;;;;;;;11.90;7.50;;;;;;;;;;5053423;28;20567;-76
2023/01/07 07:59:14;;;;;;;10.90;7.55;;;;;;;;;;5052124;28;20040;-77
2023/01/07 08:01:40;;;;;;;14.82;6.72;;;;;;;;;;5051800;28;20037;-77
2023/01/07 08:04:06;;;;;;;11.70;7.03;;;;;;;;;;5052028;28;20043;-76
2023/01/07 08:06:33;;;;;;;9.25;6.70;;;;;;;;;;5051798;28;20037;-77
2023/01/07 08:08:59;;;;;;;12.63;6.88;;;;;;;;;;5052153;28;20427;-76
2023/01/07 08:11:25;;;;;;;9.65;6.13;;;;;;;;;;5051777;28;20068;-77
2023/01/07 08:13:51;;;;;;;12.18;6.28;;;;;;;;;;5052029;28;20127;-77
2023/01/07 08:16:17;;;;;;;13.00;6.47;;;;;;;;;;5052368;28;20486;-76
2023/01/07 08:18:43;;;;;;;6.80;5.03;;;;;;;;;;5051939;28;20379;-77
2023/01/07 08:21:09;;;;;;;10.35;5.80;;;;;;;;;;5051816;28;20166;-77
2023/01/07 08:23:35;;;;;;;9.45;5.60;;;;;;;;;;5051580;28;20032;-77
2023/01/07 08:26:02;;;;;;;8.68;5.38;;;;;;;;;;5035154;28;20067;-77
2023/01/07 08:28:29;;;;;;;8.38;5.13;;;;;;;;;;5052828;28;20044;-77
2023/01/07 08:30:55;;;;;;;7.30;4.82;;;;;;;;;;5052028;28;20045;-77
2023/01/07 08:33:21;;;;;;;7.85;4.72;;;;;;;;;;5051843;28;20116;-77
2023/01/07 08:35:47;;;;;;;6.60;3.85;;;;;;;;;;5051880;28;20045;-77
2023/01/07 08:38:13;;;;;;;8.50;4.28;;;;;;;;;;5051894;28;20500;-77
2023/01/07 08:40:39;;;;;;;6.95;4.22;;;;;;;;;;5034544;28;20075;-77
2023/01/07 08:43:07;;;;;;;5.93;4.10;;;;;;;;;;5053150;28;20041;-77
2023/01/07 08:45:34;;;;;;;7.95;3.67;;;;;;;;;;5051129;28;20055;-77
2023/01/07 08:48:00;;;;;;;5.10;3.30;;;;;;;;;;5051346;28;20049;-77
2023/01/07 08:50:27;;;;;;;5.22;3.40;;;;;;;;;;5050848;28;20037;-77
2023/01/07 08:52:53;;;;;;;7.93;3.42;;;;;;;;;;5051397;28;20041;-77
2023/01/07 08:55:19;;;;;;;5.57;3.00;;;;;;;;;;5051260;28;20037;-77
2023/01/07 08:57:49;;;;;;;5.95;2.80;;;;;;;;;;5050652;28;20481;-77
2023/01/07 09:00:16;;;;;;;5.38;3.08;;;;;;;;;;5052338;28;20037;-77
2023/01/07 09:02:42;;;;;;;5.55;3.00;;;;;;;;;;5050784;28;20087;-77
2023/01/07 09:05:08;;;;;;;5.50;3.70;;;;;;;;;;5051423;28;20051;-77
2023/01/07 09:07:34;;;;;;;12.02;8.15;;;;;;;;;;5034508;28;20486;-77
2023/01/07 09:10:01;;;;;;;6.22;4.05;;;;;;;;;;5050961;28;20051;-77
2023/01/07 09:12:27;;;;;;;5.05;2.83;;;;;;;;;;5050626;28;20037;-77
2023/01/07 09:14:53;;;;;;;7.68;4.22;;;;;;;;;;5051005;28;20072;-77
2023/01/07 09:17:19;;;;;;;6.60;3.47;;;;;;;;;;5018255;28;20404;-76
2023/01/07 09:19:45;;;;;;;6.93;3.95;;;;;;;;;;5034050;28;20205;-77
2023/01/07 09:22:11;;;;;;;9.68;4.53;;;;;;;;;;5051021;28;20125;-76
2023/01/07 09:24:37;;;;;;;9.48;4.70;;;;;;;;;;5050780;28;20028;-77
2023/01/07 09:27:03;;;;;;;8.85;4.63;;;;;;;;;;5051017;28;20051;-77
2023/01/07 09:29:29;;;;;;;10.30;4.00;;;;;;;;;;5034080;28;20375;-76
2023/01/07 09:31:55;;;;;;;7.30;3.53;;;;;;;;;;5050943;28;20477;-76
2023/01/07 09:34:21;;;;;;;5.70;3.00;;;;;;;;;;5052272;28;20468;-76
2023/01/07 09:36:47;;;;;;;6.10;2.63;;;;;;;;;;5049992;28;20049;-76
2023/01/07 09:39:14;;;;;;;4.30;2.05;;;;;;;;;;5050763;28;20123;-76
2023/01/07 09:41:43;;;;;;;4.97;2.50;;;;;;;;;;5050552;28;20191;-76
2023/01/07 09:44:18;;;;;;;5.13;2.38;;;;;;;;;;5036987;28;20036;-77
2023/01/07 09:46:44;;;;;;;6.75;2.10;;;;;;;;;;5051466;28;20478;-76
2023/01/07 09:49:17;;;;;;;3.53;2.08;;;;;;;;;;5054862;28;20382;-76
2023/01/07 09:51:44;;;;;;;3.58;2.00;;;;;;;;;;5037793;28;20040;-76
2023/01/07 09:54:26;;;;;;;3.53;2.30;;;;;;;;;;5054904;28;20440;-76
2023/01/07 09:56:52;;;;;;;3.90;1.98;;;;;;;;;;5053970;28;20060;-76
2023/01/07 09:59:18;;;;;;;3.25;1.75;;;;;;;;;;5054841;28;20044;-76
2023/01/07 10:01:54;;;;;;;4.72;2.38;;;;;;;;;;5054343;28;20508;-77
2023/01/07 10:04:20;;;;;;;3.37;1.87;;;;;;;;;;5054706;28;20037;-76
2023/01/07 10:07:04;;;;;;;4.85;2.20;;;;;;;;;;5054153;28;20073;-76
2023/01/07 10:09:34;;;;;;;4.55;2.20;;;;;;;;;;5054707;28;20490;-76
2023/01/07 10:12:19;;;;;;;4.65;1.85;;;;;;;;;;5054546;28;20055;-76
2023/01/07 10:14:51;;;;;;;3.28;1.77;;;;;;;;;;5040216;28;20041;-77
2023/01/07 10:17:36;;;;;;;3.75;1.85;;;;;;;;;;5055413;28;20498;-78
2023/01/07 10:20:21;;;;;;;5.60;2.30;;;;;;;;;;5022029;28;20041;-77
2023/01/07 10:22:53;;;;;;;3.72;2.00;;;;;;;;;;5050399;28;20044;-77
2023/01/07 10:25:21;;;;;;;3.40;1.70;;;;;;;;;;5054411;28;20379;-76
2023/01/07 10:27:49;;;;;;;3.20;1.88;;;;;;;;;;5053676;28;20048;-77
2023/01/07 10:30:21;;;;;;;3.78;1.70;;;;;;;;;;5050436;28;20038;-77
2023/01/07 10:32:49;;;;;;;3.28;1.70;;;;;;;;;;5044252;28;20048;-77
2023/01/07 10:35:19;;;;;;;2.72;1.50;;;;;;;;;;5054168;28;20604;-77
2023/01/07 10:37:45;;;;;;;4.25;1.77;;;;;;;;;;5053686;28;20039;-77
2023/01/07 10:40:11;;;;;;;3.42;1.70;;;;;;;;;;5053632;28;20045;-77
2023/01/07 10:42:46;;;;;;;3.53;1.50;;;;;;;;;;5053332;28;20129;-77
2023/01/07 10:45:31;;;;;;;2.90;1.67;;;;;;;;;;5053946;28;20449;-76
2023/01/07 10:48:03;;;;;;;4.18;1.65;;;;;;;;;;5053490;28;20791;-77
2023/01/07 10:50:30;;;;;;;4.15;1.88;;;;;;;;;;5054248;28;20513;-76
2023/01/07 10:53:19;;;;;;;3.13;1.30;;;;;;;;;;5053229;28;20576;-77
2023/01/07 10:55:55;;;;;;;2.25;1.50;;;;;;;;;;5018844;28;20053;-76
2023/01/07 10:58:21;;;;;;;2.33;1.45;;;;;;;;;;5052948;28;20051;-76
2023/01/07 11:00:48;;;;;;;2.42;1.25;;;;;;;;;;5039079;28;20124;-76
2023/01/07 11:03:16;;;;;;;3.35;1.42;;;;;;;;;;5053213;28;20041;-77
2023/01/07 11:05:42;;;;;;;3.30;1.42;;;;;;;;;;5053383;28;20108;-78
2023/01/07 11:08:15;;;;;;;3.03;1.30;;;;;;;;;;5053239;28;20118;-77
2023/01/07 11:10:41;;;;;;;3.90;1.48;;;;;;;;;;5054100;28;20098;-78
2023/01/07 11:13:15;;;;;;;4.60;1.20;;;;;;;;;;5053527;28;20068;-77
2023/01/07 11:15:46;;;;;;;2.05;1.20;;;;;;;;;;5053031;28;20033;-77
2023/01/07 11:18:16;;;;;;;3.38;1.40;;;;;;;;;;5033326;28;20046;-77
2023/01/07 11:20:53;;;;;;;2.80;1.40;;;;;;;;;;5046161;28;20037;-77
2023/01/07 11:23:19;;;;;;;3.30;1.40;;;;;;;;;;5039438;28;20036;-77
2023/01/07 11:25:45;;;;;;;5.32;1.42;;;;;;;;;;5052692;28;20121;-77
2023/01/07 11:28:17;;;;;;;3.20;1.50;;;;;;;;;;5052925;28;20537;-77
2023/01/07 11:30:44;;;;;;;2.63;1.30;;;;;;;;;;5044936;28;20045;-77
2023/01/07 11:33:19;;;;;;;2.35;1.17;;;;;;;;;;5046884;28;20033;-77
2023/01/07 11:35:53;;;;;;;3.35;1.73;;;;;;;;;;5072709;28;20120;-77
2023/01/07 11:38:30;;;;;;;3.10;1.50;;;;;;;;;;5052654;28;20088;-77
2023/01/07 11:40:57;;;;;;;2.38;1.40;;;;;;;;;;5052430;28;20048;-77
2023/01/07 11:43:24;;;;;;;2.55;1.30;;;;;;;;;;5052512;28;20090;-77
2023/01/07 11:45:52;;;;;;;2.88;1.33;;;;;;;;;;5052435;28;20051;-78
2023/01/07 11:48:21;;;;;;;3.83;1.38;;;;;;;;;;5052306;28;20049;-77
2023/01/07 11:50:53;;;;;;;2.42;1.20;;;;;;;;;;5053288;28;20044;-77
2023/01/07 11:53:19;;;;;;;2.50;1.50;;;;;;;;;;5053431;28;20037;-77
2023/01/07 11:55:55;;;;;;;2.50;1.35;;;;;;;;;;5052979;28;20171;-77
2023/01/07 11:58:22;;;;;;;3.33;1.33;;;;;;;;;;5052439;28;20513;-77
2023/01/07 12:01:02;;;;;;;1.80;1.00;;;;;;;;;;5051704;28;20037;-78
2023/01/07 12:03:28;;;;;;;2.38;0.95;;;;;;;;;;5052527;28;20056;-77
2023/01/07 12:05:58;;;;;;;2.00;1.00;;;;;;;;;;5051792;28;20041;-77
2023/01/07 12:08:26;;;;;;;1.85;1.00;;;;;;;;;;5042138;28;20108;-78
2023/01/07 12:10:56;;;;;;;2.33;1.08;;;;;;;;;;5047432;28;20137;-78
2023/01/07 12:13:24;;;;;;;3.15;1.38;;;;;;;;;;5052017;28;20047;-78
2023/01/07 12:16:02;;;;;;;2.25;1.05;;;;;;;;;;5052230;28;20056;-77
2023/01/07 12:18:34;;;;;;;4.15;1.20;;;;;;;;;;5052403;28;20147;-77
2023/01/07 12:21:19;;;;;;;2.10;0.90;;;;;;;;;;5053036;28;20496;-77
2023/01/07 12:23:55;;;;;;;3.33;1.00;;;;;;;;;;5051748;28;20095;-77
2023/01/07 12:26:34;;;;;;;5.13;1.30;;;;;;;;;;5052344;28;20454;-77
2023/01/07 12:29:00;;;;;;;3.05;1.30;;;;;;;;;;5053011;28;20064;-78
2023/01/07 12:31:36;;;;;;;2.80;1.50;;;;;;;;;;5051900;28;20040;-77
2023/01/07 12:34:09;;;;;;;3.50;1.70;;;;;;;;;;5038618;28;20045;-77
2023/01/07 12:36:54;;;;;;;2.50;1.60;;;;;;;;;;5035309;28;20189;-77
2023/01/07 12:39:37;;;;;;;4.72;1.95;;;;;;;;;;5040118;28;20040;-77
2023/01/07 12:42:06;;;;;;;3.38;1.70;;;;;;;;;;5052465;28;20048;-78
2023/01/07 12:44:34;;;;;;;4.47;1.80;;;;;;;;;;5051623;28;20126;-77
2023/01/07 12:47:07;;;;;;;4.53;2.00;;;;;;;;;;5051178;28;20037;-78
2023/01/07 12:49:43;;;;;;;3.33;1.75;;;;;;;;;;5053444;28;20044;-77
2023/01/07 12:52:17;;;;;;;6.03;2.30;;;;;;;;;;5034579;28;20033;-77
2023/01/07 12:54:46;;;;;;;4.50;2.15;;;;;;;;;;5051268;28;20036;-78
2023/01/07 12:57:19;;;;;;;3.35;1.98;;;;;;;;;;5050870;28;20076;-77
2023/01/07 12:59:48;;;;;;;3.40;2.00;;;;;;;;;;5051326;28;20041;-77
2023/01/07 13:02:32;;;;;;;3.67;2.03;;;;;;;;;;5051366;28;20501;-77
2023/01/07 13:05:05;;;;;;;4.55;2.50;;;;;;;;;;5051183;28;20534;-77
2023/01/07 13:07:57;;;;;;;4.15;2.50;;;;;;;;;;5034666;28;20040;-77
2023/01/07 13:10:25;;;;;;;6.25;2.70;;;;;;;;;;5048420;28;20135;-77
2023/01/07 13:12:55;;;;;;;5.82;2.50;;;;;;;;;;5050994;28;20041;-77
2023/01/07 13:15:32;;;;;;;4.88;2.13;;;;;;;;;;5041647;28;20160;-77
2023/01/07 13:18:10;;;;;;;2.75;1.77;;;;;;;;;;5032697;28;20116;-77
2023/01/07 13:20:51;;;;;;;4.50;1.95;;;;;;;;;;5051349;28;20041;-77
2023/01/07 13:23:23;;;;;;;2.90;1.75;;;;;;;;;;5037105;28;20040;-77
2023/01/07 13:26:01;;;;;;;3.53;1.90;;;;;;;;;;5051258;28;20063;-77
2023/01/07 13:28:41;;;;;;;3.95;1.70;;;;;;;;;;5038113;28;20493;-77
2023/01/07 13:31:28;;;;;;;4.60;2.10;;;;;;;;;;5050671;28;20049;-78
2023/01/07 13:34:12;;;;;;;5.40;1.98;;;;;;;;;;5052594;28;20041;-77
2023/01/07 13:36:44;;;;;;;4.78;1.90;;;;;;;;;;5051242;28;20052;-77
2023/01/07 13:39:22;;;;;;;4.97;1.73;;;;;;;;;;5050636;28;20116;-77
2023/01/07 13:41:57;;;;;;;4.43;1.70;;;;;;;;;;5050377;28;20045;-77
2023/01/07 13:44:42;;;;;;;3.47;1.50;;;;;;;;;;5050765;28;20033;-77
2023/01/07 13:47:10;;;;;;;3.55;1.73;;;;;;;;;;5050648;28;20502;-78
2023/01/07 13:49:36;;;;;;;3.30;1.55;;;;;;;;;;5051960;28;20049;-77
2023/01/07 13:52:17;;;;;;;3.42;1.80;;;;;;;;;;5033981;28;20120;-77
2023/01/07 13:54:49;;;;;;;4.47;1.50;;;;;;;;;;5051227;28;20099;-77
2023/01/07 13:57:30;;;;;;;3.17;1.60;;;;;;;;;;5051096;28;20060;-77
2023/01/07 13:59:58;;;;;;;4.00;1.40;;;;;;;;;;5050830;28;20056;-77
2023/01/07 14:02:25;;;;;;;3.53;1.70;;;;;;;;;;5050995;28;20413;-77
2023/01/07 14:05:11;;;;;;;3.10;1.52;;;;;;;;;;5050393;28;20037;-77
2023/01/07 14:07:45;;;;;;;2.90;1.60;;;;;;;;;;5030439;28;20294;-77
2023/01/07 14:10:41;;;;;;;3.63;1.70;;;;;;;;;;5050328;28;20048;-77
2023/01/07 14:13:07;;;;;;;3.38;1.60;;;;;;;;;;5025542;28;20136;-78
2023/01/07 14:15:52;;;;;;;2.90;1.60;;;;;;;;;;5050978;28;20049;-78
2023/01/07 14:18:28;;;;;;;3.17;1.70;;;;;;;;;;5037775;28;20461;-77
2023/01/07 14:20:54;;;;;;;;;;;;;;;;;;5051062;28;20493;-77
2023/01/07 14:23:27;;;;;;;2.45;1.40;;;;;;;;;;5050453;28;19921;-77
2023/01/07 14:26:04;;;;;;;2.53;1.40;;;;;;;;;;5050486;28;20063;-77
2023/01/07 14:28:45;;;;;;;2.85;1.55;;;;;;;;;;5037665;28;20041;-77
2023/01/07 14:31:24;;;;;;;4.05;1.77;;;;;;;;;;5050051;28;20049;-77
2023/01/07 14:33:52;;;;;;;3.80;1.80;;;;;;;;;;5052807;28;20120;-77
2023/01/07 14:36:18;;;;;;;3.20;1.40;;;;;;;;;;5053438;28;20045;-78
2023/01/07 14:38:46;;;;;;;2.95;1.52;;;;;;;;;;5053943;28;20037;-77
2023/01/07 14:41:14;;;;;;;3.75;1.60;;;;;;;;;;5053572;28;20109;-78
2023/01/07 14:43:44;;;;;;;4.18;1.70;;;;;;;;;;5054264;28;20089;-78